Time;durP1;ratioP1;P1;durP2;ratioP2;P2;SDS_P1;SDS_P2;PMS_P1;PMS_P2;Temp;Humidity;BMP_temperature;BMP_pressure;BME280_temperature;BME280_humidity;BME280_pressure;Samples;Min_cycle;Max_cycle;Signal;HPM_P1;HPM_P2
2022/12/20 00:01:21;;;;;;;62.17;22.57;;;;;;;-2.33;100.00;100591.97;4193004;28;21642;-69
2022/12/20 00:03:49;;;;;;;64.63;21.10;;;;;;;-2.29;100.00;100590.13;4197000;28;21696;-72
2022/12/20 00:06:16;;;;;;;58.83;21.57;;;;;;;-2.25;100.00;100588.22;4178043;28;20300;-70
2022/12/20 00:08:44;;;;;;;63.40;22.07;;;;;;;-2.20;100.00;100579.34;4197094;28;20445;-70
2022/12/20 00:11:11;;;;;;;65.57;21.97;;;;;;;-2.19;100.00;100577.56;4196220;28;20287;-70
2022/12/20 00:13:37;;;;;;;57.33;21.37;;;;;;;-2.24;100.00;100567.31;4186989;28;20295;-70
2022/12/20 00:16:12;;;;;;;65.17;22.50;;;;;;;-2.28;100.00;100573.56;4187418;28;20244;-71
2022/12/20 00:18:39;;;;;;;61.13;21.23;;;;;;;-2.23;100.00;100569.00;4202422;28;23142;-71
2022/12/20 00:21:08;;;;;;;66.20;23.13;;;;;;;-2.20;100.00;100557.63;4188566;28;22270;-73
2022/12/20 00:23:35;;;;;;;67.30;21.83;;;;;;;-2.13;100.00;100559.94;4202350;28;20276;-72
2022/12/20 00:26:07;;;;;;;56.63;20.53;;;;;;;-2.07;100.00;100552.78;4198223;28;20248;-71
2022/12/20 00:28:35;;;;;;;63.47;22.63;;;;;;;-2.07;100.00;100553.63;4189469;28;20258;-70
2022/12/20 00:31:03;;;;;;;60.30;20.47;;;;;;;-1.99;100.00;100553.28;4190148;28;20439;-70
2022/12/20 00:33:29;;;;;;;64.87;23.17;;;;;;;-1.99;100.00;100555.91;4195778;28;22076;-70
2022/12/20 00:35:56;;;;;;;56.83;20.93;;;;;;;-1.92;100.00;100549.53;4197247;28;20242;-69
2022/12/20 00:38:24;;;;;;;57.50;21.97;;;;;;;-1.85;100.00;100556.22;4196083;28;20229;-71
2022/12/20 00:41:09;;;;;;;66.93;22.30;;;;;;;-1.85;100.00;100552.72;4196767;28;20805;-69
2022/12/20 00:43:36;;;;;;;55.50;21.40;;;;;;;-1.83;100.00;100553.53;4187740;28;20514;-73
2022/12/20 00:46:03;;;;;;;62.97;21.63;;;;;;;-1.70;100.00;100555.56;4194628;28;20240;-70
2022/12/20 00:48:31;;;;;;;57.53;22.07;;;;;;;-1.72;100.00;100546.09;4180954;28;20228;-70
2022/12/20 00:51:03;;;;;;;59.93;21.37;;;;;;;-1.68;100.00;100547.69;4214418;28;20313;-71
2022/12/20 00:53:30;;;;;;;57.50;22.23;;;;;;;-1.72;100.00;100539.13;4184469;28;21687;-70
2022/12/20 00:55:57;;;;;;;61.77;22.00;;;;;;;-1.63;100.00;100531.84;4200281;28;21035;-72
2022/12/20 00:58:25;;;;;;;62.13;22.20;;;;;;;-1.66;100.00;100543.25;4191228;28;20971;-71
2022/12/20 01:00:51;;;;;;;54.73;21.73;;;;;;;-1.62;100.00;100538.75;4196565;28;21280;-70
2022/12/20 01:03:23;;;;;;;59.07;22.60;;;;;;;-1.64;100.00;100530.13;4191724;28;22674;-71
2022/12/20 01:05:55;;;;;;;60.83;22.03;;;;;;;-1.54;100.00;100528.84;4205414;28;20809;-70
2022/12/20 01:08:22;;;;;;;63.60;22.33;;;;;;;-1.51;100.00;100531.31;4220468;28;22006;-70
2022/12/20 01:11:05;;;;;;;59.00;22.33;;;;;;;-1.52;100.00;100520.03;4195880;28;21209;-72
2022/12/20 01:13:33;;;;;;;59.07;21.60;;;;;;;-1.53;100.00;100518.31;4219094;28;26319;-71
2022/12/20 01:16:05;;;;;;;59.40;22.03;;;;;;;-1.46;100.00;100524.13;4183719;28;20672;-70
2022/12/20 01:18:31;;;;;;;62.17;22.07;;;;;;;-1.46;100.00;100518.06;4202860;28;20425;-71
2022/12/20 01:21:02;;;;;;;56.17;21.40;;;;;;;-1.42;100.00;100517.88;4196405;28;20307;-69
2022/12/20 01:23:29;;;;;;;64.07;22.37;;;;;;;-1.35;100.00;100521.06;4203305;28;20313;-72
2022/12/20 01:26:00;;;;;;;58.03;22.67;;;;;;;-1.33;100.00;100522.69;4192402;28;21649;-70
2022/12/20 01:28:28;;;;;;;56.67;21.80;;;;;;;-1.31;100.00;100517.41;4193045;28;20306;-70
2022/12/20 01:30:54;;;;;;;62.80;22.80;;;;;;;-1.31;100.00;100505.19;4194830;28;20244;-70
2022/12/20 01:33:21;;;;;;;58.00;22.07;;;;;;;-1.30;100.00;100493.81;4186454;28;20665;-71
2022/12/20 01:35:58;;;;;;;63.30;23.23;;;;;;;-1.33;100.00;100488.75;4197556;28;20732;-70
2022/12/20 01:38:25;;;;;;;60.13;22.87;;;;;;;-1.35;100.00;100479.28;4198326;28;20254;-71
2022/12/20 01:40:52;;;;;;;59.63;22.33;;;;;;;-1.30;100.00;100479.94;4208950;28;20286;-70
2022/12/20 01:43:19;;;;;;;62.93;22.87;;;;;;;-1.26;100.00;100473.66;4198060;28;20232;-71
2022/12/20 01:45:45;;;;;;;62.13;24.17;;;;;;;-1.24;100.00;100470.97;4579278;23;20341;-73
2022/12/20 01:48:24;;;;;;;60.77;23.37;;;;;;;-1.17;100.00;100470.66;4927454;28;20691;-72
2022/12/20 01:50:51;;;;;;;60.97;22.00;;;;;;;-1.16;100.00;100468.88;4939170;23;21067;-71
2022/12/20 01:53:20;;;;;;;64.17;22.13;;;;;;;-1.21;100.00;100461.25;4964564;28;20223;-71
2022/12/20 01:55:47;;;;;;;56.07;21.73;;;;;;;-1.13;100.00;100445.22;4965375;28;20234;-72
2022/12/20 01:58:15;;;;;;;64.53;23.77;;;;;;;-1.16;100.00;100448.81;4966707;28;20234;-71
2022/12/20 02:00:41;;;;;;;60.80;23.17;;;;;;;-1.17;100.00;100443.66;4955514;28;20664;-71
2022/12/20 02:03:11;;;;;;;65.83;23.63;;;;;;;-1.09;100.00;100452.84;4964331;28;20683;-71
2022/12/20 02:05:40;;;;;;;59.70;22.13;;;;;;;-1.04;100.00;100442.19;4966023;28;20281;-73
2022/12/20 02:08:08;;;;;;;62.27;23.83;;;;;;;-0.99;100.00;100450.66;4965933;28;20224;-72
2022/12/20 02:10:50;;;;;;;63.40;23.07;;;;;;;-0.97;100.00;100433.16;4964512;28;20232;-71
2022/12/20 02:14:06;;;;;;;65.80;24.93;;;;;;;-0.99;100.00;100434.16;4966280;28;20223;-73
2022/12/20 02:16:39;;;;;;;57.07;21.43;;;;;;;-0.98;100.00;100441.91;4925152;28;20877;-69
2022/12/20 02:19:43;;;;;;;56.47;22.20;;;;;;;-0.89;100.00;100432.78;4934618;28;20247;-73
2022/12/20 02:22:36;;;;;;;63.10;22.70;;;;;;;-0.86;100.00;100433.50;4968519;28;20298;-71
2022/12/20 02:25:40;;;;;;;59.03;21.43;;;;;;;-0.89;100.00;100428.44;4946196;28;20738;-71
2022/12/20 02:28:21;;;;;;;54.57;21.20;;;;;;;-0.85;100.00;100426.50;4968653;28;20232;-70
2022/12/20 02:30:53;;;;;;;60.60;22.03;;;;;;;-0.80;100.00;100431.50;4967472;28;20234;-70
2022/12/20 02:33:21;;;;;;;55.97;22.50;;;;;;;-0.76;100.00;100426.06;4949554;28;20425;-71
2022/12/20 02:35:47;;;;;;;63.80;23.33;;;;;;;-0.81;100.00;100422.00;4965438;28;22618;-71
2022/12/20 02:38:43;;;;;;;56.10;21.47;;;;;;;-0.82;100.00;100415.94;4960235;28;20230;-71
2022/12/20 02:41:14;;;;;;;60.17;22.03;;;;;;;-0.75;100.00;100422.56;4939847;28;20499;-71
2022/12/20 02:46:27;;;;;;;63.23;22.23;;;;;;;-0.79;100.00;100420.16;4946695;28;20223;-74
2022/12/20 02:48:57;;;;;;;63.83;21.40;;;;;;;-0.70;100.00;100424.94;4950455;28;20314;-72
2022/12/20 02:51:26;;;;;;;57.30;22.27;;;;;;;-0.72;100.00;100417.16;4965365;28;20239;-72
2022/12/20 02:53:52;;;;;;;62.33;22.37;;;;;;;-0.67;100.00;100414.34;4987293;28;20318;-73
2022/12/20 02:56:37;;;;;;;55.87;21.10;;;;;;;-0.61;100.00;100416.63;4971215;28;20222;-73
2022/12/20 02:59:20;;;;;;;63.73;22.63;;;;;;;-0.67;100.00;100409.94;4969428;28;20226;-71
2022/12/20 03:01:49;;;;;;;60.53;21.97;;;;;;;-0.62;100.00;100412.34;4986060;28;20241;-72
2022/12/20 03:04:18;;;;;;;55.40;21.70;;;;;;;-0.58;100.00;100408.66;4969017;28;20330;-73
2022/12/20 03:07:01;;;;;;;54.27;20.97;;;;;;;-0.65;100.00;100402.88;4984680;28;20249;-71
2022/12/20 03:09:29;;;;;;;55.93;21.80;;;;;;;-0.60;100.00;100399.22;4986812;28;20264;-70
2022/12/20 03:11:56;;;;;;;54.67;21.17;;;;;;;-0.54;100.00;100402.38;4969703;28;20253;-72
2022/12/20 03:14:22;;;;;;;54.87;21.80;;;;;;;-0.58;100.00;100397.38;4985623;28;20254;-71
2022/12/20 03:16:49;;;;;;;52.57;21.07;;;;;;;-0.53;100.00;100406.66;4987398;28;20227;-72
2022/12/20 03:19:16;;;;;;;54.17;20.83;;;;;;;-0.40;100.00;100406.06;4987222;28;20226;-72
2022/12/20 03:21:42;;;;;;;52.70;20.83;;;;;;;-0.47;100.00;100408.13;4985124;28;20983;-71
2022/12/20 03:24:10;;;;;;;56.23;21.43;;;;;;;-0.44;100.00;100421.91;4972126;28;20309;-71
2022/12/20 03:26:36;;;;;;;59.23;21.87;;;;;;;-0.36;100.00;100423.28;4985580;28;20793;-70
2022/12/20 03:29:03;;;;;;;58.63;22.53;;;;;;;-0.32;100.00;100414.38;4986734;28;20231;-71
2022/12/20 03:31:30;;;;;;;57.13;21.13;;;;;;;-0.36;100.00;100391.91;4987317;28;20223;-71
2022/12/20 03:33:56;;;;;;;50.23;20.40;;;;;;;-0.35;100.00;100385.75;4970668;28;20252;-71
2022/12/20 03:36:23;;;;;;;56.70;21.00;;;;;;;-0.39;100.00;100405.16;4985578;28;20229;-71
2022/12/20 03:38:51;;;;;;;56.70;20.93;;;;;;;-0.37;100.00;100396.31;4982779;28;20228;-72
2022/12/20 03:41:19;;;;;;;50.43;20.17;;;;;;;-0.28;100.00;100380.16;4953828;28;20261;-72
2022/12/20 03:43:45;;;;;;;53.80;20.30;;;;;;;-0.34;100.00;100390.91;4985416;28;20845;-71
2022/12/20 03:46:12;;;;;;;53.10;21.47;;;;;;;-0.27;100.00;100394.06;4986762;28;20349;-73
2022/12/20 03:48:38;;;;;;;52.73;19.53;;;;;;;-0.23;100.00;100411.31;4981854;28;20235;-71
2022/12/20 03:51:05;;;;;;;60.67;21.33;;;;;;;-0.18;100.00;100395.41;4986549;28;20237;-73
2022/12/20 03:53:32;;;;;;;53.67;20.23;;;;;;;-0.18;100.00;100395.41;4987534;28;20219;-70
2022/12/20 03:55:59;;;;;;;51.47;20.67;;;;;;;-0.21;100.00;100388.56;4986658;28;20854;-74
2022/12/20 03:58:26;;;;;;;56.13;20.07;;;;;;;-0.21;100.00;100404.25;4986318;28;20231;-71
2022/12/20 04:00:52;;;;;;;53.07;19.33;;;;;;;-0.09;100.00;100395.78;4969455;28;20249;-72
2022/12/20 04:03:18;;;;;;;51.43;19.80;;;;;;;-0.13;100.00;100398.63;4986055;28;20223;-71
2022/12/20 04:05:45;;;;;;;55.10;21.23;;;;;;;-0.08;100.00;100394.84;4985004;28;20465;-72
2022/12/20 04:08:12;;;;;;;55.20;19.40;;;;;;;-0.15;100.00;100403.91;4986819;28;20326;-71
2022/12/20 04:11:14;;;;;;;53.33;20.33;;;;;;;-0.08;100.00;100394.84;4987633;28;20223;-72
2022/12/20 04:13:25;;;;;;;56.17;19.80;;;;;;;-0.12;100.00;100388.06;4986109;28;20317;-73
2022/12/20 04:15:51;;;;;;;56.33;20.27;;;;;;;-0.04;100.00;100374.59;4983946;28;20223;-71
2022/12/20 04:18:25;;;;;;;54.63;19.87;;;;;;;-0.05;100.00;100370.28;4987554;28;20235;-72
2022/12/20 04:20:52;;;;;;;56.33;20.30;;;;;;;-0.11;100.00;100366.22;4985979;28;20238;-73
2022/12/20 04:23:19;;;;;;;48.00;18.87;;;;;;;-0.07;100.00;100359.94;4987758;28;20231;-74
2022/12/20 04:25:45;;;;;;;57.13;19.77;;;;;;;-0.04;100.00;100367.59;4985866;28;20219;-73
2022/12/20 04:28:12;;;;;;;53.33;19.17;;;;;;;0.00;100.00;100368.31;4985711;28;20229;-71
2022/12/20 04:30:38;;;;;;;48.87;18.07;;;;;;;0.01;100.00;100369.16;4986156;28;20223;-72
2022/12/20 04:33:04;;;;;;;57.93;20.70;;;;;;;-0.02;100.00;100363.13;4986407;28;20230;-72
2022/12/20 04:35:31;;;;;;;53.27;20.07;;;;;;;-0.02;100.00;100365.75;4988523;28;20308;-74
2022/12/20 04:37:58;;;;;;;44.57;18.80;;;;;;;0.00;100.00;100378.75;4981826;28;20681;-72
2022/12/20 04:40:24;;;;;;;52.13;18.97;;;;;;;0.03;100.00;100377.75;4985130;28;20498;-72
2022/12/20 04:42:51;;;;;;;45.37;18.63;;;;;;;0.03;100.00;100375.97;4986032;28;20226;-73
2022/12/20 04:45:17;;;;;;;54.47;18.37;;;;;;;0.04;100.00;100380.28;4988056;28;20219;-72
2022/12/20 04:47:44;;;;;;;42.50;17.90;;;;;;;0.04;100.00;100379.44;4987430;28;20324;-73
2022/12/20 04:50:10;;;;;;;52.17;19.00;;;;;;;0.05;100.00;100375.88;4986279;28;20235;-71
2022/12/20 04:55:22;;;;;;;45.33;18.13;;;;;;;0.09;100.00;100372.19;4988110;28;20223;-72
2022/12/20 04:57:48;;;;;;;46.17;18.63;;;;;;;0.10;100.00;100389.59;4970511;28;20685;-71
2022/12/20 05:00:15;;;;;;;43.90;17.00;;;;;;;0.10;100.00;100369.50;4986174;28;20710;-73
2022/12/20 05:02:42;;;;;;;51.27;17.53;;;;;;;0.11;100.00;100367.72;4986314;28;20705;-72
2022/12/20 05:05:09;;;;;;;51.27;17.67;;;;;;;0.08;100.00;100360.06;4985382;28;20271;-71
2022/12/20 05:07:35;;;;;;;52.37;18.30;;;;;;;0.11;100.00;100352.03;4758304;28;20248;-70
2022/12/20 05:10:02;;;;;;;43.30;16.30;;;;;;;0.08;100.00;100360.06;4192829;28;20854;-72
2022/12/20 05:12:29;;;;;;;48.10;18.73;;;;;;;0.04;100.00;100355.91;4189759;28;20264;-73
2022/12/20 05:14:55;;;;;;;52.77;18.30;;;;;;;0.14;100.00;100354.47;4179298;28;20525;-70
2022/12/20 05:17:22;;;;;;;46.47;17.50;;;;;;;0.17;100.00;100359.56;4176438;28;20244;-72
2022/12/20 05:19:51;;;;;;;47.97;18.00;;;;;;;0.16;100.00;100358.72;4177821;28;20230;-72
2022/12/20 05:27:48;;;;;;;52.10;17.27;;;;;;;0.27;100.00;100345.06;4167454;28;23429;-73
2022/12/20 05:30:14;;;;;;;52.70;18.80;;;;;;;0.25;100.00;100341.69;4181398;28;20298;-71
2022/12/20 05:32:41;;;;;;;44.03;18.47;;;;;;;0.16;100.00;100334.31;4182743;28;22416;-71
2022/12/20 05:35:08;;;;;;;43.40;17.37;;;;;;;0.29;100.00;100337.97;4174538;28;20245;-70
2022/12/20 05:37:34;;;;;;;45.37;17.47;;;;;;;0.32;100.00;100343.03;4180169;28;20240;-71
2022/12/20 05:40:01;;;;;;;44.07;17.53;;;;;;;0.26;100.00;100338.16;4181643;28;22909;-69
2022/12/20 05:42:27;;;;;;;45.50;17.40;;;;;;;0.36;100.00;100339.34;4176730;28;20340;-71
2022/12/20 05:44:54;;;;;;;46.60;17.43;;;;;;;0.29;100.00;100353.69;4184717;28;21347;-70
2022/12/20 05:47:20;;;;;;;46.40;16.97;;;;;;;0.30;100.00;100347.50;4184944;28;20410;-73
2022/12/20 05:49:47;;;;;;;41.13;16.70;;;;;;;0.43;100.00;100354.72;4178674;28;20243;-73
2022/12/20 05:52:13;;;;;;;44.53;16.53;;;;;;;0.48;100.00;100355.31;4173027;28;20298;-70
2022/12/20 05:54:39;;;;;;;42.53;17.23;;;;;;;0.48;100.00;100353.53;4172408;28;20337;-71
2022/12/20 05:57:06;;;;;;;44.20;16.90;;;;;;;0.47;100.00;100351.00;4173137;28;22193;-71
2022/12/20 05:59:32;;;;;;;41.10;16.50;;;;;;;0.48;100.00;100352.69;4176639;28;20270;-71
2022/12/20 06:01:59;;;;;;;48.77;17.27;;;;;;;0.47;100.00;100346.63;4186531;28;20431;-72
2022/12/20 06:04:26;;;;;;;39.93;16.50;;;;;;;0.55;100.00;100338.34;4203469;28;21838;-72
2022/12/20 06:06:53;;;;;;;43.33;17.03;;;;;;;0.53;100.00;100348.06;4190354;28;20318;-70
2022/12/20 06:09:19;;;;;;;53.93;18.27;;;;;;;0.49;100.00;100350.00;4183438;28;20234;-72
2022/12/20 06:11:46;;;;;;;42.73;16.27;;;;;;;0.58;100.00;100349.47;4179405;28;21297;-74
2022/12/20 06:14:13;;;;;;;45.80;17.43;;;;;;;0.56;100.00;100343.50;4163886;28;21022;-70
2022/12/20 06:16:39;;;;;;;43.30;16.40;;;;;;;0.56;100.00;100340.91;4175858;28;20236;-67
2022/12/20 06:19:06;;;;;;;44.77;16.43;;;;;;;0.43;100.00;100347.72;4172931;28;21398;-71
2022/12/20 06:21:32;;;;;;;47.33;17.93;;;;;;;0.57;100.00;100352.19;4167782;28;20363;-73
2022/12/20 06:24:00;;;;;;;52.47;17.30;;;;;;;0.58;100.00;100351.25;4170744;28;20248;-67
2022/12/20 06:26:27;;;;;;;53.63;17.80;;;;;;;0.64;100.00;100350.94;4169535;28;26278;-67
2022/12/20 06:28:55;;;;;;;44.70;18.07;;;;;;;0.63;100.00;100357.09;4174911;28;22368;-66
2022/12/20 06:31:22;;;;;;;48.63;17.70;;;;;;;0.62;100.00;100352.78;4162565;28;20261;-68
2022/12/20 06:33:49;;;;;;;43.00;18.27;;;;;;;0.60;100.00;100352.03;4199332;28;21873;-68
2022/12/20 06:36:15;;;;;;;50.33;17.80;;;;;;;0.61;100.00;100349.34;4248155;28;20676;-68
2022/12/20 06:38:42;;;;;;;41.87;16.77;;;;;;;0.68;100.00;100352.47;4211631;28;20242;-68
2022/12/20 06:41:09;;;;;;;45.33;16.37;;;;;;;0.59;100.00;100350.34;4209606;28;20380;-66
2022/12/20 06:43:35;;;;;;;46.70;17.10;;;;;;;0.55;100.00;100343.59;4233417;28;20260;-70
2022/12/20 06:46:02;;;;;;;49.43;18.40;;;;;;;0.71;100.00;100344.44;4226450;28;20235;-68
2022/12/20 06:48:29;;;;;;;49.97;17.90;;;;;;;0.74;100.00;100361.75;4231302;28;20233;-66
2022/12/20 06:50:57;;;;;;;44.77;18.13;;;;;;;0.73;100.00;100360.06;4264448;28;20323;-66
2022/12/20 06:53:24;;;;;;;61.97;18.60;;;;;;;0.76;100.00;100355.50;4321634;28;20233;-66
2022/12/20 06:55:51;;;;;;;48.70;17.70;;;;;;;0.75;100.00;100366.91;4313798;28;20237;-66
2022/12/20 06:58:19;;;;;;;47.17;18.17;;;;;;;0.80;100.00;100364.88;4215897;28;21802;-66
2022/12/20 07:00:46;;;;;;;43.17;16.70;;;;;;;0.78;100.00;100365.91;4204490;28;20230;-69
2022/12/20 07:03:12;;;;;;;49.70;18.00;;;;;;;0.86;100.00;100362.84;4228190;28;20241;-66
2022/12/20 07:05:39;;;;;;;45.73;17.60;;;;;;;0.89;100.00;100362.66;4210447;28;20246;-66
2022/12/20 07:08:08;;;;;;;44.10;18.07;;;;;;;0.90;100.00;100362.59;4213866;28;21896;-68
2022/12/20 07:10:36;;;;;;;45.50;17.47;;;;;;;0.94;100.00;100371.16;4313569;28;20228;-68
2022/12/20 07:13:03;;;;;;;44.80;17.40;;;;;;;0.86;100.00;100370.72;4309443;28;20361;-67
2022/12/20 07:15:30;;;;;;;47.23;18.03;;;;;;;0.90;100.00;100373.06;4340170;28;20886;-66
2022/12/20 07:17:58;;;;;;;48.47;18.27;;;;;;;1.00;100.00;100373.41;4371870;28;21236;-66
2022/12/20 07:20:25;;;;;;;47.83;18.93;;;;;;;0.95;100.00;100375.44;4309145;28;22464;-67
2022/12/20 07:22:52;;;;;;;54.40;19.77;;;;;;;0.98;100.00;100367.41;4292047;28;20242;-67
2022/12/20 07:25:19;;;;;;;48.97;18.50;;;;;;;0.91;100.00;100360.81;4304774;28;20281;-68
2022/12/20 07:27:48;;;;;;;52.07;19.00;;;;;;;0.96;100.00;100359.66;4272673;28;20300;-67
2022/12/20 07:30:16;;;;;;;46.93;17.93;;;;;;;1.10;100.00;100361.50;4222319;28;20348;-68
2022/12/20 07:32:43;;;;;;;46.97;17.97;;;;;;;1.02;100.00;100363.69;4273282;28;20485;-67
2022/12/20 07:35:12;;;;;;;53.23;17.37;;;;;;;1.04;100.00;100367.06;4277480;28;20247;-67
2022/12/20 07:37:39;;;;;;;42.87;17.37;;;;;;;1.09;100.00;100370.28;4286624;28;20241;-67
2022/12/20 07:40:06;;;;;;;46.43;17.30;;;;;;;1.10;100.00;100369.34;4182447;28;20325;-69
2022/12/20 07:42:33;;;;;;;46.47;18.20;;;;;;;1.14;100.00;100357.75;4225843;28;20238;-67
2022/12/20 07:45:06;;;;;;;48.33;18.30;;;;;;;1.22;100.00;100368.66;4183071;28;20237;-68
2022/12/20 07:47:34;;;;;;;46.07;17.53;;;;;;;1.26;100.00;100359.69;4189550;28;25223;-65
2022/12/20 07:50:02;;;;;;;42.60;17.17;;;;;;;1.26;100.00;100356.22;4190405;28;22389;-66
2022/12/20 07:52:29;;;;;;;46.73;17.07;;;;;;;1.32;100.00;100355.03;4202102;28;21760;-66
2022/12/20 07:55:00;;;;;;;52.73;17.03;;;;;;;1.34;100.00;100361.88;4210588;28;21615;-66
2022/12/20 07:57:36;;;;;;;45.80;16.07;;;;;;;1.41;100.00;100362.38;4175168;28;20967;-66
2022/12/20 08:00:04;;;;;;;58.90;17.30;;;;;;;1.32;100.00;100361.13;4188506;28;20271;-68
2022/12/20 08:02:34;;;;;;;47.40;17.07;;;;;;;1.36;100.00;100365.25;4200975;28;20425;-66
2022/12/20 08:05:04;;;;;;;52.43;18.40;;;;;;;1.40;100.00;100360.66;4187281;28;20228;-66
2022/12/20 08:07:32;;;;;;;44.20;16.93;;;;;;;1.33;100.00;100367.19;4208324;28;20878;-65
2022/12/20 08:09:58;;;;;;;46.50;19.07;;;;;;;1.36;100.00;100373.13;4194829;28;20301;-66
2022/12/20 08:12:26;;;;;;;44.30;18.23;;;;;;;1.42;100.00;100371.91;4199754;28;21422;-68
2022/12/20 08:14:55;;;;;;;52.73;18.63;;;;;;;1.44;100.00;100364.81;4180429;28;20239;-65
2022/12/20 08:17:22;;;;;;;48.90;18.97;;;;;;;1.43;100.00;100357.88;4208777;28;20232;-65
2022/12/20 08:19:50;;;;;;;61.60;19.53;;;;;;;1.42;100.00;100362.25;4207292;28;21937;-68
2022/12/20 08:22:21;;;;;;;49.57;18.00;;;;;;;1.44;100.00;100360.41;4197670;28;20237;-64
2022/12/20 08:24:48;;;;;;;50.07;17.80;;;;;;;1.45;100.00;100367.34;4247807;28;20327;-64
2022/12/20 08:27:15;;;;;;;47.20;17.80;;;;;;;1.50;100.00;100366.22;4211062;28;21200;-68
2022/12/20 08:29:42;;;;;;;44.27;17.17;;;;;;;1.54;99.74;100355.47;4194119;28;20236;-65
2022/12/20 08:32:09;;;;;;;47.50;17.80;;;;;;;1.52;98.93;100359.09;4169904;28;20748;-67
2022/12/20 08:34:36;;;;;;;39.73;15.63;;;;;;;1.51;98.82;100360.06;4202848;28;20230;-65
2022/12/20 08:37:02;;;;;;;43.83;16.57;;;;;;;1.49;98.89;100347.03;4187111;28;20238;-67
2022/12/20 08:39:37;;;;;;;45.47;17.73;;;;;;;1.55;99.21;100351.91;4183859;28;20229;-65
2022/12/20 08:42:04;;;;;;;42.60;15.87;;;;;;;1.60;99.32;100344.63;4181853;28;20250;-65
2022/12/20 08:44:31;;;;;;;44.40;18.70;;;;;;;1.67;98.76;100351.19;4201442;28;22843;-67
2022/12/20 08:46:57;;;;;;;41.87;15.73;;;;;;;1.67;98.19;100356.44;4212212;28;20243;-63
2022/12/20 08:49:24;;;;;;;41.80;16.13;;;;;;;1.71;98.97;100359.75;4185743;28;20228;-65
2022/12/20 08:51:50;;;;;;;39.17;16.83;;;;;;;1.85;97.94;100362.38;4204181;28;20336;-66
2022/12/20 08:54:17;;;;;;;42.27;17.23;;;;;;;1.86;98.08;100356.19;4183472;28;20310;-65
2022/12/20 08:56:43;;;;;;;45.47;17.07;;;;;;;1.93;97.63;100348.81;4190325;28;21677;-66
2022/12/20 08:59:10;;;;;;;40.40;17.37;;;;;;;1.99;96.98;100351.06;4195857;28;20304;-67
2022/12/20 09:01:37;;;;;;;42.30;17.07;;;;;;;1.95;97.08;100357.44;4203202;28;20225;-68
2022/12/20 09:04:03;;;;;;;45.50;18.47;;;;;;;2.05;97.54;100355.09;4183773;28;20239;-66
2022/12/20 09:06:33;;;;;;;48.60;17.83;;;;;;;2.07;96.92;100355.84;4206944;28;20649;-70
2022/12/20 09:09:00;;;;;;;47.43;18.07;;;;;;;2.13;96.55;100346.75;4193331;28;20398;-66
2022/12/20 09:11:27;;;;;;;44.50;17.33;;;;;;;2.23;95.16;100356.59;4199357;28;20228;-66
2022/12/20 09:13:56;;;;;;;41.73;16.83;;;;;;;2.25;95.18;100365.25;4211918;28;20249;-67
2022/12/20 09:16:26;;;;;;;51.77;18.77;;;;;;;2.38;95.13;100359.22;4208929;28;20296;-65
2022/12/20 09:18:54;;;;;;;48.37;18.23;;;;;;;2.52;93.65;100349.53;4228519;28;20924;-67
2022/12/20 09:21:31;;;;;;;47.13;18.93;;;;;;;3.00;90.89;100358.84;4204742;28;20388;-65
2022/12/20 09:23:58;;;;;;;55.27;19.63;;;;;;;3.10;90.26;100357.31;4312416;28;20242;-68
2022/12/20 09:26:25;;;;;;;51.93;20.20;;;;;;;3.29;89.22;100355.16;4253919;28;20233;-65
2022/12/20 09:28:52;;;;;;;46.47;18.37;;;;;;;3.69;87.55;100354.31;4286021;28;20239;-67
2022/12/20 09:31:22;;;;;;;46.17;17.13;;;;;;;4.56;83.05;100352.72;4207482;28;21650;-67
2022/12/20 09:33:51;;;;;;;41.13;16.60;;;;;;;4.54;80.70;100355.47;4221095;28;21781;-67
2022/12/20 09:36:19;;;;;;;41.10;17.20;;;;;;;4.64;80.03;100343.34;4204719;28;22142;-66
2022/12/20 09:38:47;;;;;;;43.33;17.33;;;;;;;4.67;78.53;100342.25;4221198;28;21364;-65
2022/12/20 09:41:22;;;;;;;48.80;17.60;;;;;;;4.62;78.96;100353.13;4207643;28;20260;-66
2022/12/20 09:43:49;;;;;;;37.47;16.13;;;;;;;4.96;77.70;100348.06;4227287;28;22415;-66
2022/12/20 09:46:16;;;;;;;40.33;17.33;;;;;;;5.22;76.07;100345.31;4307667;28;20683;-66
2022/12/20 09:48:43;;;;;;;49.17;18.23;;;;;;;5.61;73.29;100361.81;4198943;28;20960;-68
2022/12/20 09:51:31;;;;;;;40.97;16.47;;;;;;;5.91;72.06;100370.03;4192710;28;20275;-67
2022/12/20 09:54:14;;;;;;;36.77;16.13;;;;;;;6.45;70.11;100375.69;4210262;28;20249;-66
2022/12/20 09:57:13;;;;;;;45.20;16.83;;;;;;;7.22;64.68;100383.63;4221826;28;20413;-66
2022/12/20 09:59:41;;;;;;;41.47;16.57;;;;;;;7.15;63.59;100387.75;4218829;28;20237;-68
2022/12/20 10:02:19;;;;;;;42.73;16.37;;;;;;;6.37;66.04;100380.72;4188114;28;20226;-68
2022/12/20 10:05:15;;;;;;;36.40;15.97;;;;;;;6.09;68.26;100359.09;4215385;28;22943;-66
2022/12/20 10:08:09;;;;;;;41.00;16.90;;;;;;;6.13;67.90;100365.78;4201580;28;20233;-67
2022/12/20 10:10:52;;;;;;;41.30;17.17;;;;;;;7.91;63.03;100385.84;4236220;28;20295;-67
2022/12/20 10:13:37;;;;;;;37.57;16.33;;;;;;;9.69;54.72;100391.53;4229114;28;20306;-65
2022/12/20 10:16:18;;;;;;;43.20;17.10;;;;;;;11.17;47.33;100402.41;4218730;28;20280;-69
2022/12/20 10:19:09;;;;;;;40.57;16.37;;;;;;;12.02;45.03;100410.06;4255904;28;20245;-66
2022/12/20 10:22:03;;;;;;;43.57;17.57;;;;;;;11.45;45.48;100398.84;4214741;28;20890;-71
2022/12/20 10:24:32;;;;;;;38.30;16.50;;;;;;;9.82;48.35;100385.91;4190104;28;20238;-70
2022/12/20 10:27:11;;;;;;;41.10;17.63;;;;;;;7.91;55.01;100377.06;4203824;28;21531;-71
2022/12/20 10:29:37;;;;;;;39.90;17.77;;;;;;;6.87;60.20;100367.97;4206975;28;20230;-69
2022/12/20 10:32:11;;;;;;;44.67;18.87;;;;;;;5.82;66.04;100349.63;4181214;28;20678;-68
2022/12/20 10:34:42;;;;;;;50.10;18.73;;;;;;;5.56;68.13;100337.56;4191573;28;20241;-67
2022/12/20 10:37:17;;;;;;;44.43;17.73;;;;;;;5.29;69.80;100334.22;4198392;28;20230;-69
2022/12/20 10:39:47;;;;;;;47.83;18.33;;;;;;;5.04;71.25;100335.19;4175206;28;21366;-68
2022/12/20 10:42:36;;;;;;;42.23;17.47;;;;;;;4.76;72.33;100327.59;4214967;28;20236;-68
2022/12/20 10:45:05;;;;;;;41.67;16.93;;;;;;;4.81;72.95;100318.38;4200685;28;21321;-68
2022/12/20 10:47:39;;;;;;;42.83;17.27;;;;;;;5.55;70.13;100314.75;4196819;28;21265;-67
2022/12/20 10:50:26;;;;;;;45.33;17.47;;;;;;;5.57;70.00;100320.75;4231615;28;20661;-67
2022/12/20 10:53:08;;;;;;;52.07;19.60;;;;;;;5.43;69.95;100321.78;4233402;28;20247;-67
2022/12/20 10:55:37;;;;;;;49.43;19.53;;;;;;;4.88;72.71;100316.16;4210052;28;25889;-67
2022/12/20 10:58:28;;;;;;;58.23;19.47;;;;;;;4.21;75.97;100312.13;4203588;28;21693;-66
2022/12/20 11:01:12;;;;;;;50.77;19.50;;;;;;;4.16;78.66;100294.94;4211685;28;20237;-68
2022/12/20 11:03:52;;;;;;;49.70;18.13;;;;;;;5.16;73.62;100283.31;4250038;28;20316;-69
2022/12/20 11:06:22;;;;;;;48.17;19.37;;;;;;;4.90;73.49;100271.22;4219033;28;20236;-68
2022/12/20 11:08:49;;;;;;;51.20;18.60;;;;;;;4.42;74.89;100261.47;4222723;28;21629;-68
2022/12/20 11:11:26;;;;;;;64.77;20.03;;;;;;;4.19;77.01;100265.75;4213788;28;22221;-67
2022/12/20 11:13:52;;;;;;;61.43;20.20;;;;;;;4.01;77.98;100252.09;4207024;28;20232;-67
2022/12/20 11:16:35;;;;;;;50.30;20.20;;;;;;;3.77;78.84;100239.69;4260081;28;20225;-67
2022/12/20 11:19:21;;;;;;;56.90;20.63;;;;;;;3.59;80.41;100233.91;4246965;28;21033;-67
2022/12/20 11:21:59;;;;;;;53.27;21.07;;;;;;;3.57;80.74;100233.16;4236482;28;21685;-69
2022/12/20 11:24:31;;;;;;;52.80;19.93;;;;;;;3.48;81.45;100235.59;4246033;28;20244;-68
2022/12/20 11:27:13;;;;;;;58.33;20.23;;;;;;;3.46;81.53;100233.06;4246603;28;20268;-68
2022/12/20 11:29:50;;;;;;;47.87;19.00;;;;;;;3.37;82.79;100234.53;4221105;28;20239;-70
2022/12/20 11:32:32;;;;;;;55.17;20.70;;;;;;;3.35;82.16;100246.94;4225814;28;20808;-67
2022/12/20 11:35:18;;;;;;;56.60;22.20;;;;;;;3.41;82.21;100247.47;4214702;28;20234;-68